<?xml version="1.0" encoding="UTF-8"?>
<gpx version="1.1" creator="https://www.youtrack.es" xsi:schemaLocation="http://www.topografix.com/GPX/1/1 http://www.topografix.com/GPX/1/1/gpx.xsd http://www.garmin.com/xmlschemas/GpxExtensions/v3 http://www.garmin.com/xmlschemas/GpxExtensionsv3.xsd http://www.garmin.com/xmlschemas/TrackPointExtension/v1 http://www.garmin.com/xmlschemas/TrackPointExtensionv1.xsd" xmlns:gpxtpx="http://www.garmin.com/xmlschemas/TrackPointExtension/v1" xmlns:gpxx="http://www.garmin.com/xmlschemas/GpxExtensions/v3" xmlns:xsi="http://www.w3.org/2001/XMLSchema-instance">
  <metadata>
    <link href="https://www.youtrack.es">
      <text>YouTrack.es</text>
    </link>
    <time>2026-05-08T17:09:26Z</time>
  </metadata>
  <trk>
    <src>https://www.youtrack.es</src>
    <link href="https://www.youtrack.es/ruta/16922-ruta-de-los-refugios-de-libar">
      <text>YouTrack.es</text>
    </link>
    <trkseg>
      <trkpt lat="36.6904" lon="-5.372058">
        <ele>951.368</ele>
        <time>2020-02-21T09:02:35Z</time>
      </trkpt>
      <trkpt lat="36.690413" lon="-5.371781">
        <ele>943.642</ele>
        <time>2020-02-21T09:04:10Z</time>
      </trkpt>
      <trkpt lat="36.690275" lon="-5.371758">
        <ele>942.726</ele>
        <time>2020-02-21T09:04:36Z</time>
      </trkpt>
      <trkpt lat="36.690048" lon="-5.370922">
        <ele>938.308</ele>
        <time>2020-02-21T09:05:54Z</time>
      </trkpt>
      <trkpt lat="36.688604" lon="-5.369307">
        <ele>929.27</ele>
        <time>2020-02-21T09:08:28Z</time>
      </trkpt>
      <trkpt lat="36.688032" lon="-5.368915">
        <ele>922.073</ele>
        <time>2020-02-21T09:09:34Z</time>
      </trkpt>
      <trkpt lat="36.687763" lon="-5.368361">
        <ele>916.22</ele>
        <time>2020-02-21T09:10:47Z</time>
      </trkpt>
      <trkpt lat="36.687227" lon="-5.368365">
        <ele>910.086</ele>
        <time>2020-02-21T09:13:04Z</time>
      </trkpt>
      <trkpt lat="36.686364" lon="-5.367392">
        <ele>906.615</ele>
        <time>2020-02-21T09:17:34Z</time>
      </trkpt>
      <trkpt lat="36.685474" lon="-5.36677">
        <ele>909.083</ele>
        <time>2020-02-21T09:19:27Z</time>
      </trkpt>
      <trkpt lat="36.685097" lon="-5.366214">
        <ele>901.396</ele>
        <time>2020-02-21T09:21:53Z</time>
      </trkpt>
      <trkpt lat="36.68423" lon="-5.365614">
        <ele>900.84</ele>
        <time>2020-02-21T09:24:08Z</time>
      </trkpt>
      <trkpt lat="36.683684" lon="-5.365461">
        <ele>905.216</ele>
        <time>2020-02-21T09:25:23Z</time>
      </trkpt>
      <trkpt lat="36.683423" lon="-5.365116">
        <ele>910.076</ele>
        <time>2020-02-21T09:26:07Z</time>
      </trkpt>
      <trkpt lat="36.683208" lon="-5.364104">
        <ele>908.513</ele>
        <time>2020-02-21T09:27:30Z</time>
      </trkpt>
      <trkpt lat="36.683567" lon="-5.363418">
        <ele>907.108</ele>
        <time>2020-02-21T09:31:23Z</time>
      </trkpt>
      <trkpt lat="36.68339" lon="-5.362959">
        <ele>896.065</ele>
        <time>2020-02-21T09:32:10Z</time>
      </trkpt>
      <trkpt lat="36.683438" lon="-5.362474">
        <ele>882.678</ele>
        <time>2020-02-21T09:33:25Z</time>
      </trkpt>
      <trkpt lat="36.683263" lon="-5.362163">
        <ele>872.595</ele>
        <time>2020-02-21T09:34:18Z</time>
      </trkpt>
      <trkpt lat="36.683162" lon="-5.361425">
        <ele>859.091</ele>
        <time>2020-02-21T09:36:15Z</time>
      </trkpt>
      <trkpt lat="36.682541" lon="-5.360935">
        <ele>848.03</ele>
        <time>2020-02-21T09:37:44Z</time>
      </trkpt>
      <trkpt lat="36.682463" lon="-5.360592">
        <ele>841.728</ele>
        <time>2020-02-21T09:38:18Z</time>
      </trkpt>
      <trkpt lat="36.682599" lon="-5.359929">
        <ele>835.531</ele>
        <time>2020-02-21T09:39:21Z</time>
      </trkpt>
      <trkpt lat="36.683289" lon="-5.359145">
        <ele>829.725</ele>
        <time>2020-02-21T09:41:00Z</time>
      </trkpt>
      <trkpt lat="36.68308" lon="-5.359084">
        <ele>828.733</ele>
        <time>2020-02-21T09:47:30Z</time>
      </trkpt>
      <trkpt lat="36.68175" lon="-5.356875">
        <ele>807.623</ele>
        <time>2020-02-21T09:51:52Z</time>
      </trkpt>
      <trkpt lat="36.680567" lon="-5.356165">
        <ele>814.315</ele>
        <time>2020-02-21T09:54:02Z</time>
      </trkpt>
      <trkpt lat="36.679114" lon="-5.355667">
        <ele>811.908</ele>
        <time>2020-02-21T09:56:25Z</time>
      </trkpt>
      <trkpt lat="36.678567" lon="-5.355109">
        <ele>810.547</ele>
        <time>2020-02-21T09:57:37Z</time>
      </trkpt>
      <trkpt lat="36.676902" lon="-5.355392">
        <ele>806.65</ele>
        <time>2020-02-21T10:00:17Z</time>
      </trkpt>
      <trkpt lat="36.676041" lon="-5.355269">
        <ele>806.247</ele>
        <time>2020-02-21T10:01:47Z</time>
      </trkpt>
      <trkpt lat="36.675551" lon="-5.355041">
        <ele>804.743</ele>
        <time>2020-02-21T10:03:29Z</time>
      </trkpt>
      <trkpt lat="36.675037" lon="-5.355386">
        <ele>806.282</ele>
        <time>2020-02-21T10:08:13Z</time>
      </trkpt>
      <trkpt lat="36.67459" lon="-5.355432">
        <ele>809.09</ele>
        <time>2020-02-21T10:09:06Z</time>
      </trkpt>
      <trkpt lat="36.674466" lon="-5.355343">
        <ele>811.413</ele>
        <time>2020-02-21T10:11:25Z</time>
      </trkpt>
      <trkpt lat="36.674707" lon="-5.355027">
        <ele>820.137</ele>
        <time>2020-02-21T10:13:12Z</time>
      </trkpt>
      <trkpt lat="36.674475" lon="-5.354903">
        <ele>828.752</ele>
        <time>2020-02-21T10:15:15Z</time>
      </trkpt>
      <trkpt lat="36.674011" lon="-5.355092">
        <ele>832.653</ele>
        <time>2020-02-21T10:21:21Z</time>
      </trkpt>
      <trkpt lat="36.673924" lon="-5.355018">
        <ele>838.408</ele>
        <time>2020-02-21T10:22:16Z</time>
      </trkpt>
      <trkpt lat="36.674065" lon="-5.354848">
        <ele>842.708</ele>
        <time>2020-02-21T10:25:19Z</time>
      </trkpt>
      <trkpt lat="36.673872" lon="-5.354506">
        <ele>856.669</ele>
        <time>2020-02-21T10:28:37Z</time>
      </trkpt>
      <trkpt lat="36.673368" lon="-5.354396">
        <ele>873.032</ele>
        <time>2020-02-21T10:31:24Z</time>
      </trkpt>
      <trkpt lat="36.673447" lon="-5.354249">
        <ele>876.859</ele>
        <time>2020-02-21T10:32:02Z</time>
      </trkpt>
      <trkpt lat="36.673095" lon="-5.354284">
        <ele>884.015</ele>
        <time>2020-02-21T10:34:23Z</time>
      </trkpt>
      <trkpt lat="36.673197" lon="-5.354372">
        <ele>884.574</ele>
        <time>2020-02-21T10:36:45Z</time>
      </trkpt>
      <trkpt lat="36.672926" lon="-5.354211">
        <ele>892.262</ele>
        <time>2020-02-21T10:40:12Z</time>
      </trkpt>
      <trkpt lat="36.672503" lon="-5.354243">
        <ele>901.845</ele>
        <time>2020-02-21T10:41:29Z</time>
      </trkpt>
      <trkpt lat="36.672699" lon="-5.354019">
        <ele>908.569</ele>
        <time>2020-02-21T10:42:26Z</time>
      </trkpt>
      <trkpt lat="36.672338" lon="-5.354071">
        <ele>914.387</ele>
        <time>2020-02-21T10:44:45Z</time>
      </trkpt>
      <trkpt lat="36.671429" lon="-5.354722">
        <ele>922.042</ele>
        <time>2020-02-21T10:47:41Z</time>
      </trkpt>
      <trkpt lat="36.669625" lon="-5.355151">
        <ele>935.926</ele>
        <time>2020-02-21T10:55:26Z</time>
      </trkpt>
      <trkpt lat="36.669072" lon="-5.355536">
        <ele>933.108</ele>
        <time>2020-02-21T10:57:05Z</time>
      </trkpt>
      <trkpt lat="36.668331" lon="-5.355606">
        <ele>939.382</ele>
        <time>2020-02-21T10:58:59Z</time>
      </trkpt>
      <trkpt lat="36.6679" lon="-5.355345">
        <ele>949.485</ele>
        <time>2020-02-21T11:00:17Z</time>
      </trkpt>
      <trkpt lat="36.667473" lon="-5.354667">
        <ele>952.852</ele>
        <time>2020-02-21T11:02:09Z</time>
      </trkpt>
      <trkpt lat="36.667624" lon="-5.354172">
        <ele>946.078</ele>
        <time>2020-02-21T11:03:39Z</time>
      </trkpt>
      <trkpt lat="36.667599" lon="-5.353576">
        <ele>945.537</ele>
        <time>2020-02-21T11:04:46Z</time>
      </trkpt>
      <trkpt lat="36.667756" lon="-5.353295">
        <ele>942.775</ele>
        <time>2020-02-21T11:05:28Z</time>
      </trkpt>
      <trkpt lat="36.667089" lon="-5.352074">
        <ele>946.098</ele>
        <time>2020-02-21T11:08:15Z</time>
      </trkpt>
      <trkpt lat="36.667025" lon="-5.351701">
        <ele>940.382</ele>
        <time>2020-02-21T11:10:39Z</time>
      </trkpt>
      <trkpt lat="36.667125" lon="-5.351754">
        <ele>938.834</ele>
        <time>2020-02-21T11:12:58Z</time>
      </trkpt>
      <trkpt lat="36.667215" lon="-5.3515">
        <ele>937.455</ele>
        <time>2020-02-21T11:30:00Z</time>
      </trkpt>
      <trkpt lat="36.666962" lon="-5.351789">
        <ele>941.71</ele>
        <time>2020-02-21T11:33:23Z</time>
      </trkpt>
      <trkpt lat="36.667128" lon="-5.351379">
        <ele>939.819</ele>
        <time>2017-05-27T09:10:46Z</time>
      </trkpt>
      <trkpt lat="36.667237" lon="-5.351672">
        <ele>939.309</ele>
        <time>2017-05-27T09:13:48Z</time>
      </trkpt>
      <trkpt lat="36.667196" lon="-5.351488">
        <ele>939.319</ele>
        <time>2017-05-27T09:14:02Z</time>
      </trkpt>
      <trkpt lat="36.666924" lon="-5.351724">
        <ele>940.308</ele>
        <time>2017-05-27T09:15:16Z</time>
      </trkpt>
      <trkpt lat="36.66614" lon="-5.351464">
        <ele>951.372</ele>
        <time>2017-05-27T09:18:14Z</time>
      </trkpt>
      <trkpt lat="36.665819" lon="-5.351758">
        <ele>952.36</ele>
        <time>2017-05-27T09:19:09Z</time>
      </trkpt>
      <trkpt lat="36.665185" lon="-5.351591">
        <ele>949.98</ele>
        <time>2017-05-27T09:21:00Z</time>
      </trkpt>
      <trkpt lat="36.664692" lon="-5.351819">
        <ele>949.455</ele>
        <time>2017-05-27T09:22:03Z</time>
      </trkpt>
      <trkpt lat="36.664136" lon="-5.351789">
        <ele>947.013</ele>
        <time>2017-05-27T09:23:06Z</time>
      </trkpt>
      <trkpt lat="36.663132" lon="-5.352381">
        <ele>944.635</ele>
        <time>2017-05-27T09:26:57Z</time>
      </trkpt>
      <trkpt lat="36.662266" lon="-5.353216">
        <ele>947.032</ele>
        <time>2017-05-27T09:29:20Z</time>
      </trkpt>
      <trkpt lat="36.661645" lon="-5.353521">
        <ele>957.63</ele>
        <time>2017-05-27T09:31:09Z</time>
      </trkpt>
      <trkpt lat="36.660602" lon="-5.353661">
        <ele>978.245</ele>
        <time>2017-05-27T09:34:39Z</time>
      </trkpt>
      <trkpt lat="36.66015" lon="-5.354077">
        <ele>983.547</ele>
        <time>2017-05-27T09:37:43Z</time>
      </trkpt>
      <trkpt lat="36.659349" lon="-5.355594">
        <ele>1011.911</ele>
        <time>2017-05-27T09:42:58Z</time>
      </trkpt>
      <trkpt lat="36.659279" lon="-5.355534">
        <ele>1012.408</ele>
        <time>2017-05-27T09:44:30Z</time>
      </trkpt>
      <trkpt lat="36.65869" lon="-5.356491">
        <ele>1022.045</ele>
        <time>2017-05-27T09:50:46Z</time>
      </trkpt>
      <trkpt lat="36.656991" lon="-5.357965">
        <ele>1033.033</ele>
        <time>2017-05-27T09:56:42Z</time>
      </trkpt>
      <trkpt lat="36.656572" lon="-5.359053">
        <ele>1029.223</ele>
        <time>2017-05-27T09:59:35Z</time>
      </trkpt>
      <trkpt lat="36.655774" lon="-5.359657">
        <ele>1034.038</ele>
        <time>2017-05-27T10:01:59Z</time>
      </trkpt>
      <trkpt lat="36.655555" lon="-5.360279">
        <ele>1037.446</ele>
        <time>2017-05-27T10:03:22Z</time>
      </trkpt>
      <trkpt lat="36.654984" lon="-5.36062">
        <ele>1044.698</ele>
        <time>2017-05-27T10:05:30Z</time>
      </trkpt>
      <trkpt lat="36.654965" lon="-5.360968">
        <ele>1042.225</ele>
        <time>2017-05-27T10:06:05Z</time>
      </trkpt>
      <trkpt lat="36.654661" lon="-5.361189">
        <ele>1040.273</ele>
        <time>2017-05-27T10:07:47Z</time>
      </trkpt>
      <trkpt lat="36.654719" lon="-5.361372">
        <ele>1040.793</ele>
        <time>2017-05-27T10:09:23Z</time>
      </trkpt>
      <trkpt lat="36.654385" lon="-5.361276">
        <ele>1043.665</ele>
        <time>2017-05-27T10:13:54Z</time>
      </trkpt>
      <trkpt lat="36.653873" lon="-5.362145">
        <ele>1042.221</ele>
        <time>2017-05-27T10:16:16Z</time>
      </trkpt>
      <trkpt lat="36.653031" lon="-5.362294">
        <ele>1036.408</ele>
        <time>2017-05-27T10:18:09Z</time>
      </trkpt>
      <trkpt lat="36.652828" lon="-5.362494">
        <ele>1036.95</ele>
        <time>2017-05-27T10:18:38Z</time>
      </trkpt>
      <trkpt lat="36.652477" lon="-5.362415">
        <ele>1035.078</ele>
        <time>2017-05-27T10:19:20Z</time>
      </trkpt>
      <trkpt lat="36.651942" lon="-5.362526">
        <ele>1040.288</ele>
        <time>2017-05-27T10:20:44Z</time>
      </trkpt>
      <trkpt lat="36.651533" lon="-5.362989">
        <ele>1048.433</ele>
        <time>2017-05-27T10:22:28Z</time>
      </trkpt>
      <trkpt lat="36.651042" lon="-5.362949">
        <ele>1057.531</ele>
        <time>2017-05-27T10:24:33Z</time>
      </trkpt>
      <trkpt lat="36.650449" lon="-5.363623">
        <ele>1062.313</ele>
        <time>2017-05-27T10:26:38Z</time>
      </trkpt>
      <trkpt lat="36.648638" lon="-5.364342">
        <ele>1076.89</ele>
        <time>2017-05-27T10:32:30Z</time>
      </trkpt>
      <trkpt lat="36.647569" lon="-5.364207">
        <ele>1090.768</ele>
        <time>2017-05-27T10:37:43Z</time>
      </trkpt>
      <trkpt lat="36.647709" lon="-5.364054">
        <ele>1100.39</ele>
        <time>2017-05-27T11:40:25Z</time>
      </trkpt>
      <trkpt lat="36.647445" lon="-5.364264">
        <ele>1092.695</ele>
        <time>2017-05-27T11:41:04Z</time>
      </trkpt>
      <trkpt lat="36.646541" lon="-5.364516">
        <ele>1088.383</ele>
        <time>2017-05-27T11:45:09Z</time>
      </trkpt>
      <trkpt lat="36.646078" lon="-5.364426">
        <ele>1085.455</ele>
        <time>2017-05-27T11:46:18Z</time>
      </trkpt>
      <trkpt lat="36.645483" lon="-5.365225">
        <ele>1085.962</ele>
        <time>2017-05-27T12:13:15Z</time>
      </trkpt>
      <trkpt lat="36.645504" lon="-5.365083">
        <ele>1087.32</ele>
        <time>2017-05-27T12:24:37Z</time>
      </trkpt>
      <trkpt lat="36.645185" lon="-5.364886">
        <ele>1077.232</ele>
        <time>2017-05-27T12:30:31Z</time>
      </trkpt>
      <trkpt lat="36.645107" lon="-5.364452">
        <ele>1069.692</ele>
        <time>2017-05-27T12:31:58Z</time>
      </trkpt>
      <trkpt lat="36.644752" lon="-5.36408">
        <ele>1060.411</ele>
        <time>2017-05-27T12:33:44Z</time>
      </trkpt>
      <trkpt lat="36.644745" lon="-5.363901">
        <ele>1061.408</ele>
        <time>2017-05-27T12:33:57Z</time>
      </trkpt>
      <trkpt lat="36.645107" lon="-5.363335">
        <ele>1063.374</ele>
        <time>2017-05-27T12:35:09Z</time>
      </trkpt>
      <trkpt lat="36.645365" lon="-5.363217">
        <ele>1067.662</ele>
        <time>2017-05-27T12:35:59Z</time>
      </trkpt>
      <trkpt lat="36.645552" lon="-5.362721">
        <ele>1074.482</ele>
        <time>2017-05-27T12:37:36Z</time>
      </trkpt>
      <trkpt lat="36.645077" lon="-5.362273">
        <ele>1063.347</ele>
        <time>2017-05-27T12:39:34Z</time>
      </trkpt>
      <trkpt lat="36.645283" lon="-5.362062">
        <ele>1061.945</ele>
        <time>2017-05-27T12:40:56Z</time>
      </trkpt>
      <trkpt lat="36.645378" lon="-5.361654">
        <ele>1060.437</ele>
        <time>2017-05-27T12:43:03Z</time>
      </trkpt>
      <trkpt lat="36.645226" lon="-5.360671">
        <ele>1049.484</ele>
        <time>2017-05-27T12:45:18Z</time>
      </trkpt>
      <trkpt lat="36.645402" lon="-5.360383">
        <ele>1048.942</ele>
        <time>2017-05-27T12:45:49Z</time>
      </trkpt>
      <trkpt lat="36.645932" lon="-5.36004">
        <ele>1044.197</ele>
        <time>2017-05-27T12:47:24Z</time>
      </trkpt>
      <trkpt lat="36.646358" lon="-5.359288">
        <ele>1044.123</ele>
        <time>2017-05-27T12:49:12Z</time>
      </trkpt>
      <trkpt lat="36.646812" lon="-5.358259">
        <ele>1041.725</ele>
        <time>2017-05-27T12:51:04Z</time>
      </trkpt>
      <trkpt lat="36.646989" lon="-5.357211">
        <ele>1029.208</ele>
        <time>2017-05-27T12:53:12Z</time>
      </trkpt>
      <trkpt lat="36.646737" lon="-5.356581">
        <ele>1023.92</ele>
        <time>2017-05-27T12:55:03Z</time>
      </trkpt>
      <trkpt lat="36.647438" lon="-5.355803">
        <ele>1020.558</ele>
        <time>2017-05-27T12:56:47Z</time>
      </trkpt>
      <trkpt lat="36.647325" lon="-5.355264">
        <ele>1019.678</ele>
        <time>2017-05-27T12:58:00Z</time>
      </trkpt>
      <trkpt lat="36.647838" lon="-5.354873">
        <ele>1015.243</ele>
        <time>2017-05-27T12:59:49Z</time>
      </trkpt>
      <trkpt lat="36.647838" lon="-5.354469">
        <ele>1013.361</ele>
        <time>2017-05-27T13:00:26Z</time>
      </trkpt>
      <trkpt lat="36.647277" lon="-5.353362">
        <ele>1006.133</ele>
        <time>2017-05-27T13:02:52Z</time>
      </trkpt>
      <trkpt lat="36.647245" lon="-5.352676">
        <ele>1005.28</ele>
        <time>2017-05-27T13:04:45Z</time>
      </trkpt>
      <trkpt lat="36.647702" lon="-5.352326">
        <ele>1003.298</ele>
        <time>2017-05-27T13:11:48Z</time>
      </trkpt>
      <trkpt lat="36.648827" lon="-5.352227">
        <ele>1003.217</ele>
        <time>2017-05-27T13:13:48Z</time>
      </trkpt>
      <trkpt lat="36.649474" lon="-5.351733">
        <ele>1000.387</ele>
        <time>2017-05-27T13:15:52Z</time>
      </trkpt>
      <trkpt lat="36.649889" lon="-5.351008">
        <ele>992.715</ele>
        <time>2017-05-27T13:17:48Z</time>
      </trkpt>
      <trkpt lat="36.650313" lon="-5.350731">
        <ele>988.808</ele>
        <time>2017-05-27T13:18:54Z</time>
      </trkpt>
      <trkpt lat="36.650791" lon="-5.350722">
        <ele>979.762</ele>
        <time>2017-05-27T13:20:25Z</time>
      </trkpt>
      <trkpt lat="36.651283" lon="-5.350229">
        <ele>965.73</ele>
        <time>2017-05-27T13:22:28Z</time>
      </trkpt>
      <trkpt lat="36.651577" lon="-5.349525">
        <ele>958.06</ele>
        <time>2017-05-27T13:24:17Z</time>
      </trkpt>
      <trkpt lat="36.652408" lon="-5.348549">
        <ele>957.115</ele>
        <time>2017-05-27T13:26:22Z</time>
      </trkpt>
      <trkpt lat="36.652683" lon="-5.348518">
        <ele>957.643</ele>
        <time>2017-05-27T13:36:51Z</time>
      </trkpt>
      <trkpt lat="36.652876" lon="-5.347899">
        <ele>953.295</ele>
        <time>2017-05-27T13:38:34Z</time>
      </trkpt>
      <trkpt lat="36.653634" lon="-5.3477">
        <ele>950.422</ele>
        <time>2017-05-27T13:40:08Z</time>
      </trkpt>
      <trkpt lat="36.653656" lon="-5.347034">
        <ele>952.32</ele>
        <time>2017-05-27T13:41:29Z</time>
      </trkpt>
      <trkpt lat="36.654797" lon="-5.345734">
        <ele>956.199</ele>
        <time>2017-05-27T13:46:35Z</time>
      </trkpt>
      <trkpt lat="36.654694" lon="-5.344022">
        <ele>955.207</ele>
        <time>2017-05-27T13:50:10Z</time>
      </trkpt>
      <trkpt lat="36.654107" lon="-5.342978">
        <ele>953.227</ele>
        <time>2017-05-27T13:52:11Z</time>
      </trkpt>
      <trkpt lat="36.653316" lon="-5.342824">
        <ele>950.808</ele>
        <time>2017-05-27T13:53:47Z</time>
      </trkpt>
      <trkpt lat="36.653117" lon="-5.342944">
        <ele>951.82</ele>
        <time>2017-05-27T13:54:29Z</time>
      </trkpt>
      <trkpt lat="36.653168" lon="-5.343046">
        <ele>949.498</ele>
        <time>2017-05-27T13:58:31Z</time>
      </trkpt>
      <trkpt lat="36.653086" lon="-5.342671">
        <ele>954.788</ele>
        <time>2017-05-27T14:06:08Z</time>
      </trkpt>
      <trkpt lat="36.652724" lon="-5.342679">
        <ele>953.753</ele>
        <time>2017-05-27T14:06:48Z</time>
      </trkpt>
      <trkpt lat="36.652529" lon="-5.34231">
        <ele>961.481</ele>
        <time>2017-05-27T14:08:19Z</time>
      </trkpt>
      <trkpt lat="36.652051" lon="-5.342214">
        <ele>975.333</ele>
        <time>2017-05-27T14:10:08Z</time>
      </trkpt>
      <trkpt lat="36.651631" lon="-5.341939">
        <ele>985.05</ele>
        <time>2017-05-27T14:11:51Z</time>
      </trkpt>
      <trkpt lat="36.6512" lon="-5.341859">
        <ele>995.148</ele>
        <time>2017-05-27T14:13:22Z</time>
      </trkpt>
      <trkpt lat="36.651061" lon="-5.342139">
        <ele>995.145</ele>
        <time>2017-05-27T14:13:59Z</time>
      </trkpt>
      <trkpt lat="36.650271" lon="-5.341799">
        <ele>999.947</ele>
        <time>2017-05-27T14:16:36Z</time>
      </trkpt>
      <trkpt lat="36.649933" lon="-5.342131">
        <ele>994.111</ele>
        <time>2017-05-27T14:18:53Z</time>
      </trkpt>
      <trkpt lat="36.649719" lon="-5.341933">
        <ele>992.708</ele>
        <time>2017-05-27T14:21:14Z</time>
      </trkpt>
      <trkpt lat="36.649905" lon="-5.342034">
        <ele>994.645</ele>
        <time>2017-05-27T14:23:00Z</time>
      </trkpt>
      <trkpt lat="36.649975" lon="-5.341911">
        <ele>994.663</ele>
        <time>2017-05-27T14:24:41Z</time>
      </trkpt>
      <trkpt lat="36.649932" lon="-5.34211">
        <ele>992.753</ele>
        <time>2017-05-27T14:26:39Z</time>
      </trkpt>
      <trkpt lat="36.649765" lon="-5.341998">
        <ele>993.688</ele>
        <time>2017-05-27T14:28:29Z</time>
      </trkpt>
      <trkpt lat="36.649769" lon="-5.342098">
        <ele>994.166</ele>
        <time>2017-05-27T14:29:01Z</time>
      </trkpt>
      <trkpt lat="36.650143" lon="-5.342409">
        <ele>995.568</ele>
        <time>2017-05-27T14:31:19Z</time>
      </trkpt>
      <trkpt lat="36.65066" lon="-5.342095">
        <ele>1000.895</ele>
        <time>2017-05-27T14:35:13Z</time>
      </trkpt>
      <trkpt lat="36.651055" lon="-5.342151">
        <ele>993.693</ele>
        <time>2017-05-27T14:36:33Z</time>
      </trkpt>
      <trkpt lat="36.651209" lon="-5.341886">
        <ele>993.653</ele>
        <time>2017-05-27T14:37:20Z</time>
      </trkpt>
      <trkpt lat="36.652261" lon="-5.342296">
        <ele>968.604</ele>
        <time>2017-05-27T14:40:56Z</time>
      </trkpt>
      <trkpt lat="36.652696" lon="-5.342325">
        <ele>957.614</ele>
        <time>2017-05-27T14:42:16Z</time>
      </trkpt>
      <trkpt lat="36.653179" lon="-5.342624">
        <ele>953.708</ele>
        <time>2017-05-27T14:43:12Z</time>
      </trkpt>
      <trkpt lat="36.653347" lon="-5.342595">
        <ele>954.216</ele>
        <time>2017-05-27T14:46:17Z</time>
      </trkpt>
      <trkpt lat="36.653302" lon="-5.342752">
        <ele>955.224</ele>
        <time>2017-05-27T14:50:55Z</time>
      </trkpt>
      <trkpt lat="36.653326" lon="-5.342614">
        <ele>953.774</ele>
        <time>2017-05-27T14:55:32Z</time>
      </trkpt>
      <trkpt lat="36.65396" lon="-5.343148">
        <ele>953.279</ele>
        <time>2017-05-27T14:57:25Z</time>
      </trkpt>
      <trkpt lat="36.654157" lon="-5.343105">
        <ele>955.237</ele>
        <time>2017-05-27T14:57:55Z</time>
      </trkpt>
      <trkpt lat="36.654054" lon="-5.343236">
        <ele>954.779</ele>
        <time>2017-05-27T14:58:13Z</time>
      </trkpt>
      <trkpt lat="36.65424" lon="-5.343315">
        <ele>954.746</ele>
        <time>2017-05-27T14:58:39Z</time>
      </trkpt>
      <trkpt lat="36.655462" lon="-5.341961">
        <ele>953.734</ele>
        <time>2017-05-27T15:02:30Z</time>
      </trkpt>
      <trkpt lat="36.657266" lon="-5.341043">
        <ele>950.486</ele>
        <time>2017-05-27T15:06:19Z</time>
      </trkpt>
      <trkpt lat="36.657739" lon="-5.340646">
        <ele>951.86</ele>
        <time>2017-05-27T15:07:51Z</time>
      </trkpt>
      <trkpt lat="36.658409" lon="-5.340707">
        <ele>949.926</ele>
        <time>2017-05-27T15:10:52Z</time>
      </trkpt>
      <trkpt lat="36.659509" lon="-5.340166">
        <ele>956.108</ele>
        <time>2017-05-27T15:13:10Z</time>
      </trkpt>
      <trkpt lat="36.660769" lon="-5.339138">
        <ele>955.239</ele>
        <time>2017-05-27T15:15:51Z</time>
      </trkpt>
      <trkpt lat="36.661157" lon="-5.338911">
        <ele>958.567</ele>
        <time>2017-05-27T15:16:35Z</time>
      </trkpt>
      <trkpt lat="36.661216" lon="-5.338988">
        <ele>958.557</ele>
        <time>2017-05-27T15:17:36Z</time>
      </trkpt>
      <trkpt lat="36.662138" lon="-5.337986">
        <ele>955.692</ele>
        <time>2017-05-27T15:19:37Z</time>
      </trkpt>
      <trkpt lat="36.663777" lon="-5.33692">
        <ele>956.17</ele>
        <time>2017-05-27T15:22:39Z</time>
      </trkpt>
      <trkpt lat="36.664634" lon="-5.336789">
        <ele>956.672</ele>
        <time>2017-05-27T15:24:20Z</time>
      </trkpt>
      <trkpt lat="36.665589" lon="-5.336342">
        <ele>958.599</ele>
        <time>2017-05-27T15:26:00Z</time>
      </trkpt>
      <trkpt lat="36.666409" lon="-5.33639">
        <ele>959.527</ele>
        <time>2017-05-27T15:28:28Z</time>
      </trkpt>
      <trkpt lat="36.667589" lon="-5.33616">
        <ele>964.353</ele>
        <time>2017-05-27T15:32:24Z</time>
      </trkpt>
      <trkpt lat="36.667944" lon="-5.335866">
        <ele>965.304</ele>
        <time>2017-05-27T15:33:18Z</time>
      </trkpt>
      <trkpt lat="36.668341" lon="-5.335115">
        <ele>964.814</ele>
        <time>2017-05-27T15:34:49Z</time>
      </trkpt>
      <trkpt lat="36.668861" lon="-5.334506">
        <ele>963.308</ele>
        <time>2017-05-27T15:36:06Z</time>
      </trkpt>
      <trkpt lat="36.671025" lon="-5.333032">
        <ele>965.386</ele>
        <time>2017-05-27T15:40:43Z</time>
      </trkpt>
      <trkpt lat="36.671613" lon="-5.332992">
        <ele>967.234</ele>
        <time>2017-05-27T15:41:45Z</time>
      </trkpt>
      <trkpt lat="36.67177" lon="-5.333287">
        <ele>975.324</ele>
        <time>2017-05-27T15:42:33Z</time>
      </trkpt>
      <trkpt lat="36.672207" lon="-5.333495">
        <ele>985.099</ele>
        <time>2017-05-27T15:44:40Z</time>
      </trkpt>
      <trkpt lat="36.672165" lon="-5.333912">
        <ele>999.917</ele>
        <time>2017-05-27T15:45:55Z</time>
      </trkpt>
      <trkpt lat="36.672479" lon="-5.334186">
        <ele>1009.059</ele>
        <time>2017-05-27T15:51:17Z</time>
      </trkpt>
      <trkpt lat="36.672469" lon="-5.334591">
        <ele>1017.246</ele>
        <time>2017-05-27T15:52:19Z</time>
      </trkpt>
      <trkpt lat="36.672629" lon="-5.334725">
        <ele>1018.634</ele>
        <time>2017-05-27T15:52:49Z</time>
      </trkpt>
      <trkpt lat="36.67246" lon="-5.335167">
        <ele>1025.321</ele>
        <time>2017-05-27T15:54:13Z</time>
      </trkpt>
      <trkpt lat="36.672621" lon="-5.335615">
        <ele>1029.241</ele>
        <time>2017-05-27T15:55:09Z</time>
      </trkpt>
      <trkpt lat="36.673267" lon="-5.336175">
        <ele>1024.905</ele>
        <time>2017-05-27T15:57:13Z</time>
      </trkpt>
      <trkpt lat="36.673457" lon="-5.337194">
        <ele>1023.908</ele>
        <time>2017-05-27T15:58:39Z</time>
      </trkpt>
      <trkpt lat="36.673912" lon="-5.337654">
        <ele>1017.613</ele>
        <time>2017-05-27T15:59:38Z</time>
      </trkpt>
      <trkpt lat="36.674074" lon="-5.338028">
        <ele>1015.241</ele>
        <time>2017-05-27T16:00:09Z</time>
      </trkpt>
      <trkpt lat="36.674335" lon="-5.338162">
        <ele>1013.361</ele>
        <time>2017-05-27T16:00:39Z</time>
      </trkpt>
      <trkpt lat="36.67429" lon="-5.33861">
        <ele>1010.916</ele>
        <time>2017-05-27T16:01:19Z</time>
      </trkpt>
      <trkpt lat="36.674658" lon="-5.339238">
        <ele>1001.384</ele>
        <time>2017-05-27T16:02:52Z</time>
      </trkpt>
      <trkpt lat="36.674585" lon="-5.339444">
        <ele>995.536</ele>
        <time>2017-05-27T16:03:42Z</time>
      </trkpt>
      <trkpt lat="36.674743" lon="-5.339547">
        <ele>990.713</ele>
        <time>2017-05-27T16:04:20Z</time>
      </trkpt>
      <trkpt lat="36.674744" lon="-5.33976">
        <ele>986.451</ele>
        <time>2017-05-27T16:04:49Z</time>
      </trkpt>
      <trkpt lat="36.674816" lon="-5.339701">
        <ele>985.413</ele>
        <time>2017-05-27T16:05:02Z</time>
      </trkpt>
      <trkpt lat="36.67497" lon="-5.340031">
        <ele>972.943</ele>
        <time>2017-05-27T16:06:42Z</time>
      </trkpt>
      <trkpt lat="36.675344" lon="-5.339895">
        <ele>960.007</ele>
        <time>2017-05-27T16:08:09Z</time>
      </trkpt>
      <trkpt lat="36.67524" lon="-5.340056">
        <ele>958.008</ele>
        <time>2017-05-27T16:08:30Z</time>
      </trkpt>
      <trkpt lat="36.675438" lon="-5.340016">
        <ele>953.212</ele>
        <time>2017-05-27T16:09:12Z</time>
      </trkpt>
      <trkpt lat="36.675366" lon="-5.34056">
        <ele>940.73</ele>
        <time>2017-05-27T16:10:42Z</time>
      </trkpt>
      <trkpt lat="36.675497" lon="-5.340507">
        <ele>937.94</ele>
        <time>2017-05-27T16:11:07Z</time>
      </trkpt>
      <trkpt lat="36.67548" lon="-5.340895">
        <ele>929.785</ele>
        <time>2017-05-27T16:12:07Z</time>
      </trkpt>
      <trkpt lat="36.675898" lon="-5.341103">
        <ele>921.033</ele>
        <time>2017-05-27T16:13:19Z</time>
      </trkpt>
      <trkpt lat="36.676073" lon="-5.341289">
        <ele>917.235</ele>
        <time>2017-05-27T16:16:26Z</time>
      </trkpt>
      <trkpt lat="36.676103" lon="-5.341607">
        <ele>913.872</ele>
        <time>2017-05-27T16:17:39Z</time>
      </trkpt>
      <trkpt lat="36.676452" lon="-5.341769">
        <ele>910.57</ele>
        <time>2017-05-27T16:18:21Z</time>
      </trkpt>
      <trkpt lat="36.677658" lon="-5.34284">
        <ele>901.816</ele>
        <time>2017-05-27T16:22:53Z</time>
      </trkpt>
      <trkpt lat="36.678728" lon="-5.345126">
        <ele>878.776</ele>
        <time>2017-05-27T16:28:13Z</time>
      </trkpt>
      <trkpt lat="36.678768" lon="-5.346065">
        <ele>859.013</ele>
        <time>2017-05-27T16:31:03Z</time>
      </trkpt>
      <trkpt lat="36.678903" lon="-5.346033">
        <ele>855.708</ele>
        <time>2017-05-27T16:31:31Z</time>
      </trkpt>
      <trkpt lat="36.678937" lon="-5.34638">
        <ele>848.912</ele>
        <time>2017-05-27T16:32:26Z</time>
      </trkpt>
      <trkpt lat="36.67906" lon="-5.346323">
        <ele>845.11</ele>
        <time>2017-05-27T16:33:03Z</time>
      </trkpt>
      <trkpt lat="36.6792" lon="-5.346727">
        <ele>829.23</ele>
        <time>2017-05-27T16:35:13Z</time>
      </trkpt>
      <trkpt lat="36.679144" lon="-5.347022">
        <ele>821.125</ele>
        <time>2017-05-27T16:36:19Z</time>
      </trkpt>
      <trkpt lat="36.679293" lon="-5.347033">
        <ele>817.253</ele>
        <time>2017-05-27T16:36:45Z</time>
      </trkpt>
      <trkpt lat="36.679172" lon="-5.347173">
        <ele>814.375</ele>
        <time>2017-05-27T16:37:11Z</time>
      </trkpt>
      <trkpt lat="36.679315" lon="-5.347421">
        <ele>805.762</ele>
        <time>2017-05-27T16:38:09Z</time>
      </trkpt>
      <trkpt lat="36.679168" lon="-5.347699">
        <ele>803.35</ele>
        <time>2017-05-27T16:40:09Z</time>
      </trkpt>
      <trkpt lat="36.679083" lon="-5.348763">
        <ele>797.551</ele>
        <time>2017-05-27T16:44:36Z</time>
      </trkpt>
      <trkpt lat="36.679159" lon="-5.349586">
        <ele>796.101</ele>
        <time>2017-05-27T16:46:08Z</time>
      </trkpt>
      <trkpt lat="36.680024" lon="-5.350964">
        <ele>795.611</ele>
        <time>2017-05-27T16:48:27Z</time>
      </trkpt>
      <trkpt lat="36.68042" lon="-5.352507">
        <ele>797.008</ele>
        <time>2017-05-27T16:50:46Z</time>
      </trkpt>
      <trkpt lat="36.681496" lon="-5.354969">
        <ele>804.786</ele>
        <time>2017-05-27T16:54:34Z</time>
      </trkpt>
      <trkpt lat="36.681676" lon="-5.355703">
        <ele>804.234</ele>
        <time>2017-05-27T16:55:32Z</time>
      </trkpt>
      <trkpt lat="36.681612" lon="-5.356811">
        <ele>807.124</ele>
        <time>2017-05-27T16:57:02Z</time>
      </trkpt>
      <trkpt lat="36.682513" lon="-5.357038">
        <ele>812.929</ele>
        <time>2017-05-27T16:58:31Z</time>
      </trkpt>
      <trkpt lat="36.683053" lon="-5.357756">
        <ele>818.287</ele>
        <time>2017-05-27T16:59:45Z</time>
      </trkpt>
      <trkpt lat="36.683236" lon="-5.359119">
        <ele>827.369</ele>
        <time>2017-05-27T17:03:28Z</time>
      </trkpt>
      <trkpt lat="36.682946" lon="-5.359713">
        <ele>835.046</ele>
        <time>2017-05-27T17:04:36Z</time>
      </trkpt>
      <trkpt lat="36.683136" lon="-5.360105">
        <ele>842.294</ele>
        <time>2017-05-27T17:05:34Z</time>
      </trkpt>
      <trkpt lat="36.68308" lon="-5.360622">
        <ele>849.468</ele>
        <time>2017-05-27T17:06:29Z</time>
      </trkpt>
      <trkpt lat="36.683619" lon="-5.361796">
        <ele>863.442</ele>
        <time>2017-05-27T17:08:41Z</time>
      </trkpt>
      <trkpt lat="36.68459" lon="-5.362305">
        <ele>873.026</ele>
        <time>2017-05-27T17:10:35Z</time>
      </trkpt>
      <trkpt lat="36.68532" lon="-5.363656">
        <ele>885.008</ele>
        <time>2017-05-27T17:12:56Z</time>
      </trkpt>
      <trkpt lat="36.685359" lon="-5.364365">
        <ele>895.697</ele>
        <time>2017-05-27T17:14:10Z</time>
      </trkpt>
      <trkpt lat="36.685655" lon="-5.364901">
        <ele>901.825</ele>
        <time>2017-05-27T17:15:53Z</time>
      </trkpt>
      <trkpt lat="36.68578" lon="-5.365662">
        <ele>910.015</ele>
        <time>2017-05-27T17:17:03Z</time>
      </trkpt>
      <trkpt lat="36.685769" lon="-5.366555">
        <ele>918.67</ele>
        <time>2017-05-27T17:18:21Z</time>
      </trkpt>
      <trkpt lat="36.686049" lon="-5.366771">
        <ele>920.658</ele>
        <time>2017-05-27T17:18:57Z</time>
      </trkpt>
      <trkpt lat="36.686481" lon="-5.366814">
        <ele>920.66</ele>
        <time>2017-05-27T17:19:50Z</time>
      </trkpt>
      <trkpt lat="36.687415" lon="-5.367731">
        <ele>927.857</ele>
        <time>2017-05-27T17:21:48Z</time>
      </trkpt>
      <trkpt lat="36.688242" lon="-5.36819">
        <ele>930.635</ele>
        <time>2017-05-27T17:23:12Z</time>
      </trkpt>
      <trkpt lat="36.688823" lon="-5.369572">
        <ele>924.996</ele>
        <time>2017-05-27T17:25:15Z</time>
      </trkpt>
      <trkpt lat="36.689529" lon="-5.370337">
        <ele>926.831</ele>
        <time>2017-05-27T17:27:04Z</time>
      </trkpt>
    </trkseg>
  </trk>
</gpx>
